PADK Airport Information

Runway Information
Runway 05 Length 7790 ft width 200 ft
Elevation 17 ft Threshold 0 ft Heading 61
Runway 23 Length 7790 ft Width 200 ft
Elevation 15 ft Threshold 0 ft Heading 241
Runway 18 Length 7605 ft width 200 ft
Elevation 6 ft Threshold 0 ft Heading 185
Runway 36 Length 7605 ft Width 200 ft
Elevation 4 ft Threshold 0 ft Heading 5
Airport Frequencies
Airport Navaids
Type NDB-DME Name Mount Moffett Frequency 530 KHZ
Type TACAN Name Adak Frequency 113000 KHZ
Airport Weather Information & NOTAM
ADDS - METARS form results

(0903 UTC 15 November 2018)
Data provider http://aviationweather.gov/metar/data/
 
METAR text: PADK 150856Z AUTO 01005KT 10SM OVC045 02/M03 A3006 RMK AO2 SLP181 60000 T00221028 50004 FZRANO
Conditions at: PADK (ADAK NAS , AK, US) observed 0856 UTC 15 November 2018
Temperature: 2.2°C (36°F)
Dewpoint: -2.8°C (27°F) [RH = 69%]
Pressure (altimeter): 30.06 inches Hg (1018.0 mb)
[Sea-level pressure: 1018.1 mb]
Winds: from the N (10 degrees) at 6 MPH (5 knots; 2.6 m/s)
Visibility: 10 or more miles (16+ km)
Ceiling: 4500 feet AGL
Clouds: overcast cloud deck at 4500 feet AGL
Weather: automated observation with no human augmentation;
there may or may not be significant weather present at this time